sensor_id;sensor_type;location;lat;lon;timestamp;P1;durP1;ratioP1;P2;durP2;ratioP2
15112;SDS011;7657;50.140;7.076;2023-04-24T00:00:54;0.20;;;0.20;;
15112;SDS011;7657;50.140;7.076;2023-04-24T00:03:22;0.40;;;0.35;;
15112;SDS011;7657;50.140;7.076;2023-04-24T00:05:49;0.20;;;0.20;;
15112;SDS011;7657;50.140;7.076;2023-04-24T00:08:18;0.95;;;0.47;;
15112;SDS011;7657;50.140;7.076;2023-04-24T00:10:45;0.20;;;0.20;;
15112;SDS011;7657;50.140;7.076;2023-04-24T00:13:12;0.80;;;0.20;;
15112;SDS011;7657;50.140;7.076;2023-04-24T00:15:39;0.20;;;0.20;;
15112;SDS011;7657;50.140;7.076;2023-04-24T00:18:06;1.83;;;0.28;;
15112;SDS011;7657;50.140;7.076;2023-04-24T00:20:33;0.20;;;0.20;;
15112;SDS011;7657;50.140;7.076;2023-04-24T00:23:01;2.50;;;0.45;;
15112;SDS011;7657;50.140;7.076;2023-04-24T00:25:29;1.25;;;0.22;;
15112;SDS011;7657;50.140;7.076;2023-04-24T00:27:56;0.10;;;0.10;;
15112;SDS011;7657;50.140;7.076;2023-04-24T00:30:23;0.47;;;0.20;;
15112;SDS011;7657;50.140;7.076;2023-04-24T00:32:49;2.00;;;0.40;;
15112;SDS011;7657;50.140;7.076;2023-04-24T00:35:16;0.57;;;0.40;;
15112;SDS011;7657;50.140;7.076;2023-04-24T00:37:44;1.40;;;0.52;;
15112;SDS011;7657;50.140;7.076;2023-04-24T00:40:11;0.50;;;0.43;;
15112;SDS011;7657;50.140;7.076;2023-04-24T00:42:40;0.43;;;0.40;;
15112;SDS011;7657;50.140;7.076;2023-04-24T00:45:07;0.30;;;0.30;;
15112;SDS011;7657;50.140;7.076;2023-04-24T00:47:34;0.85;;;0.40;;
15112;SDS011;7657;50.140;7.076;2023-04-24T00:50:02;0.30;;;0.25;;
15112;SDS011;7657;50.140;7.076;2023-04-24T00:52:29;1.35;;;0.45;;
15112;SDS011;7657;50.140;7.076;2023-04-24T00:54:57;0.20;;;0.20;;
15112;SDS011;7657;50.140;7.076;2023-04-24T00:57:24;0.93;;;0.40;;
15112;SDS011;7657;50.140;7.076;2023-04-24T00:59:52;0.95;;;0.68;;
15112;SDS011;7657;50.140;7.076;2023-04-24T01:02:19;1.50;;;0.70;;
15112;SDS011;7657;50.140;7.076;2023-04-24T01:04:49;0.52;;;0.52;;
15112;SDS011;7657;50.140;7.076;2023-04-24T01:07:17;2.08;;;0.60;;
15112;SDS011;7657;50.140;7.076;2023-04-24T01:09:46;0.55;;;0.55;;
15112;SDS011;7657;50.140;7.076;2023-04-24T01:12:16;1.30;;;0.50;;
15112;SDS011;7657;50.140;7.076;2023-04-24T01:14:43;1.67;;;1.00;;
15112;SDS011;7657;50.140;7.076;2023-04-24T01:17:12;0.90;;;0.82;;
15112;SDS011;7657;50.140;7.076;2023-04-24T01:19:39;1.92;;;1.00;;
15112;SDS011;7657;50.140;7.076;2023-04-24T01:22:11;1.27;;;0.90;;
15112;SDS011;7657;50.140;7.076;2023-04-24T01:24:39;1.17;;;1.07;;
15112;SDS011;7657;50.140;7.076;2023-04-24T01:27:06;2.07;;;1.20;;
15112;SDS011;7657;50.140;7.076;2023-04-24T01:29:34;1.27;;;1.17;;
15112;SDS011;7657;50.140;7.076;2023-04-24T01:32:01;1.67;;;1.13;;
15112;SDS011;7657;50.140;7.076;2023-04-24T01:34:29;1.80;;;1.23;;
15112;SDS011;7657;50.140;7.076;2023-04-24T01:36:56;1.90;;;1.57;;
15112;SDS011;7657;50.140;7.076;2023-04-24T01:39:24;1.43;;;1.33;;
15112;SDS011;7657;50.140;7.076;2023-04-24T01:41:53;1.80;;;1.70;;
15112;SDS011;7657;50.140;7.076;2023-04-24T01:44:20;1.50;;;1.40;;
15112;SDS011;7657;50.140;7.076;2023-04-24T01:46:47;1.53;;;1.40;;
15112;SDS011;7657;50.140;7.076;2023-04-24T01:49:15;2.20;;;1.60;;
15112;SDS011;7657;50.140;7.076;2023-04-24T01:51:42;2.33;;;2.10;;
15112;SDS011;7657;50.140;7.076;2023-04-24T01:54:09;4.03;;;2.03;;
15112;SDS011;7657;50.140;7.076;2023-04-24T01:56:37;2.27;;;1.80;;
15112;SDS011;7657;50.140;7.076;2023-04-24T01:59:08;2.60;;;1.80;;
15112;SDS011;7657;50.140;7.076;2023-04-24T02:01:37;2.67;;;1.60;;
15112;SDS011;7657;50.140;7.076;2023-04-24T02:04:05;2.17;;;1.37;;
15112;SDS011;7657;50.140;7.076;2023-04-24T02:06:32;3.70;;;1.70;;
15112;SDS011;7657;50.140;7.076;2023-04-24T02:08:59;1.87;;;1.60;;
15112;SDS011;7657;50.140;7.076;2023-04-24T02:11:26;2.73;;;1.77;;
15112;SDS011;7657;50.140;7.076;2023-04-24T02:13:55;2.47;;;2.00;;
15112;SDS011;7657;50.140;7.076;2023-04-24T02:16:21;2.93;;;2.10;;
15112;SDS011;7657;50.140;7.076;2023-04-24T02:18:48;2.63;;;2.07;;
15112;SDS011;7657;50.140;7.076;2023-04-24T02:21:15;2.27;;;2.07;;
15112;SDS011;7657;50.140;7.076;2023-04-24T02:23:42;2.63;;;1.80;;
15112;SDS011;7657;50.140;7.076;2023-04-24T02:26:09;2.53;;;1.80;;
15112;SDS011;7657;50.140;7.076;2023-04-24T02:28:37;2.00;;;1.80;;
15112;SDS011;7657;50.140;7.076;2023-04-24T02:31:05;2.50;;;1.77;;
15112;SDS011;7657;50.140;7.076;2023-04-24T02:33:32;1.83;;;1.73;;
15112;SDS011;7657;50.140;7.076;2023-04-24T02:35:59;3.27;;;2.00;;
15112;SDS011;7657;50.140;7.076;2023-04-24T02:38:26;2.40;;;1.93;;
15112;SDS011;7657;50.140;7.076;2023-04-24T02:40:52;2.33;;;1.87;;
15112;SDS011;7657;50.140;7.076;2023-04-24T02:43:19;1.97;;;1.60;;
15112;SDS011;7657;50.140;7.076;2023-04-24T02:45:46;3.63;;;2.13;;
15112;SDS011;7657;50.140;7.076;2023-04-24T02:48:15;2.37;;;2.00;;
15112;SDS011;7657;50.140;7.076;2023-04-24T02:50:42;2.97;;;2.23;;
15112;SDS011;7657;50.140;7.076;2023-04-24T02:53:08;2.53;;;2.17;;
15112;SDS011;7657;50.140;7.076;2023-04-24T02:55:36;2.67;;;2.00;;
15112;SDS011;7657;50.140;7.076;2023-04-24T02:58:02;2.30;;;1.87;;
15112;SDS011;7657;50.140;7.076;2023-04-24T03:00:31;3.90;;;1.90;;
15112;SDS011;7657;50.140;7.076;2023-04-24T03:02:57;2.87;;;2.37;;
15112;SDS011;7657;50.140;7.076;2023-04-24T03:05:26;2.60;;;2.40;;
15112;SDS011;7657;50.140;7.076;2023-04-24T03:07:53;3.47;;;2.63;;
15112;SDS011;7657;50.140;7.076;2023-04-24T03:10:20;2.17;;;1.90;;
15112;SDS011;7657;50.140;7.076;2023-04-24T03:12:47;3.23;;;2.70;;
15112;SDS011;7657;50.140;7.076;2023-04-24T03:15:14;2.90;;;2.30;;
15112;SDS011;7657;50.140;7.076;2023-04-24T03:17:42;2.50;;;2.20;;
15112;SDS011;7657;50.140;7.076;2023-04-24T03:20:09;2.93;;;2.60;;
15112;SDS011;7657;50.140;7.076;2023-04-24T03:22:37;3.37;;;2.50;;
15112;SDS011;7657;50.140;7.076;2023-04-24T03:25:05;3.17;;;2.27;;
15112;SDS011;7657;50.140;7.076;2023-04-24T03:27:34;2.73;;;2.50;;
15112;SDS011;7657;50.140;7.076;2023-04-24T03:30:00;3.53;;;2.57;;
15112;SDS011;7657;50.140;7.076;2023-04-24T03:32:28;3.03;;;2.57;;
15112;SDS011;7657;50.140;7.076;2023-04-24T03:34:55;2.87;;;2.60;;
15112;SDS011;7657;50.140;7.076;2023-04-24T03:37:22;3.33;;;2.73;;
15112;SDS011;7657;50.140;7.076;2023-04-24T03:39:50;4.00;;;2.90;;
15112;SDS011;7657;50.140;7.076;2023-04-24T03:42:17;3.47;;;2.83;;
15112;SDS011;7657;50.140;7.076;2023-04-24T03:44:44;3.53;;;2.73;;
15112;SDS011;7657;50.140;7.076;2023-04-24T03:47:11;4.40;;;3.20;;
15112;SDS011;7657;50.140;7.076;2023-04-24T03:49:38;6.53;;;3.13;;
15112;SDS011;7657;50.140;7.076;2023-04-24T03:52:04;4.57;;;3.10;;
15112;SDS011;7657;50.140;7.076;2023-04-24T03:54:31;4.57;;;3.63;;
15112;SDS011;7657;50.140;7.076;2023-04-24T03:57:00;4.20;;;3.40;;
15112;SDS011;7657;50.140;7.076;2023-04-24T03:59:28;4.60;;;3.60;;
15112;SDS011;7657;50.140;7.076;2023-04-24T04:01:55;3.80;;;3.40;;
15112;SDS011;7657;50.140;7.076;2023-04-24T04:04:22;5.23;;;3.87;;
15112;SDS011;7657;50.140;7.076;2023-04-24T04:06:49;6.77;;;3.77;;
15112;SDS011;7657;50.140;7.076;2023-04-24T04:09:16;5.43;;;3.80;;
15112;SDS011;7657;50.140;7.076;2023-04-24T04:11:43;6.60;;;4.00;;
15112;SDS011;7657;50.140;7.076;2023-04-24T04:14:11;5.37;;;3.97;;
15112;SDS011;7657;50.140;7.076;2023-04-24T04:16:38;6.03;;;4.10;;
15112;SDS011;7657;50.140;7.076;2023-04-24T04:19:05;6.63;;;4.23;;
15112;SDS011;7657;50.140;7.076;2023-04-24T04:21:32;3.97;;;3.53;;
15112;SDS011;7657;50.140;7.076;2023-04-24T04:23:59;4.77;;;4.00;;
15112;SDS011;7657;50.140;7.076;2023-04-24T04:26:26;5.93;;;3.93;;
15112;SDS011;7657;50.140;7.076;2023-04-24T04:28:53;4.67;;;4.00;;
15112;SDS011;7657;50.140;7.076;2023-04-24T04:31:21;6.20;;;4.03;;
15112;SDS011;7657;50.140;7.076;2023-04-24T04:33:48;6.93;;;4.70;;
15112;SDS011;7657;50.140;7.076;2023-04-24T04:36:15;6.00;;;4.47;;
15112;SDS011;7657;50.140;7.076;2023-04-24T04:38:42;5.83;;;4.27;;
15112;SDS011;7657;50.140;7.076;2023-04-24T04:41:09;5.00;;;3.97;;
15112;SDS011;7657;50.140;7.076;2023-04-24T04:43:37;6.87;;;4.87;;
15112;SDS011;7657;50.140;7.076;2023-04-24T04:46:05;9.40;;;5.13;;
15112;SDS011;7657;50.140;7.076;2023-04-24T04:48:34;6.60;;;5.23;;
15112;SDS011;7657;50.140;7.076;2023-04-24T04:51:01;8.87;;;5.53;;
15112;SDS011;7657;50.140;7.076;2023-04-24T04:53:28;6.57;;;5.03;;
15112;SDS011;7657;50.140;7.076;2023-04-24T04:55:55;7.20;;;4.60;;
15112;SDS011;7657;50.140;7.076;2023-04-24T04:58:22;5.87;;;5.00;;
15112;SDS011;7657;50.140;7.076;2023-04-24T05:00:49;6.07;;;4.63;;
15112;SDS011;7657;50.140;7.076;2023-04-24T05:03:17;8.03;;;5.40;;
15112;SDS011;7657;50.140;7.076;2023-04-24T05:05:45;10.30;;;5.90;;
15112;SDS011;7657;50.140;7.076;2023-04-24T05:08:12;8.63;;;5.27;;
15112;SDS011;7657;50.140;7.076;2023-04-24T05:10:39;9.20;;;5.63;;
15112;SDS011;7657;50.140;7.076;2023-04-24T05:13:06;10.17;;;5.90;;
15112;SDS011;7657;50.140;7.076;2023-04-24T05:15:33;8.57;;;5.77;;
15112;SDS011;7657;50.140;7.076;2023-04-24T05:17:59;7.43;;;4.97;;
15112;SDS011;7657;50.140;7.076;2023-04-24T05:20:26;8.67;;;5.97;;
15112;SDS011;7657;50.140;7.076;2023-04-24T05:22:55;7.77;;;5.80;;
15112;SDS011;7657;50.140;7.076;2023-04-24T05:25:21;6.83;;;5.60;;
15112;SDS011;7657;50.140;7.076;2023-04-24T05:27:48;7.90;;;6.07;;
15112;SDS011;7657;50.140;7.076;2023-04-24T05:30:15;7.63;;;5.73;;
15112;SDS011;7657;50.140;7.076;2023-04-24T05:32:42;8.97;;;6.43;;
15112;SDS011;7657;50.140;7.076;2023-04-24T05:35:09;9.90;;;6.43;;
15112;SDS011;7657;50.140;7.076;2023-04-24T05:37:36;8.00;;;6.20;;
15112;SDS011;7657;50.140;7.076;2023-04-24T05:40:05;7.93;;;6.07;;
15112;SDS011;7657;50.140;7.076;2023-04-24T05:42:33;8.73;;;6.27;;
15112;SDS011;7657;50.140;7.076;2023-04-24T05:45:00;6.90;;;5.97;;
15112;SDS011;7657;50.140;7.076;2023-04-24T05:47:27;7.50;;;5.50;;
15112;SDS011;7657;50.140;7.076;2023-04-24T05:49:54;7.97;;;5.70;;
15112;SDS011;7657;50.140;7.076;2023-04-24T05:52:21;7.83;;;6.10;;
15112;SDS011;7657;50.140;7.076;2023-04-24T05:54:48;8.03;;;6.20;;
15112;SDS011;7657;50.140;7.076;2023-04-24T05:57:16;8.70;;;6.03;;
15112;SDS011;7657;50.140;7.076;2023-04-24T05:59:43;7.63;;;5.47;;
15112;SDS011;7657;50.140;7.076;2023-04-24T06:02:10;6.70;;;5.43;;
15112;SDS011;7657;50.140;7.076;2023-04-24T06:04:37;7.23;;;5.43;;
15112;SDS011;7657;50.140;7.076;2023-04-24T06:07:04;6.60;;;5.53;;
15112;SDS011;7657;50.140;7.076;2023-04-24T06:09:31;9.37;;;6.30;;
15112;SDS011;7657;50.140;7.076;2023-04-24T06:11:58;9.83;;;6.13;;
15112;SDS011;7657;50.140;7.076;2023-04-24T06:14:26;8.43;;;5.57;;
15112;SDS011;7657;50.140;7.076;2023-04-24T06:16:53;9.23;;;6.83;;
15112;SDS011;7657;50.140;7.076;2023-04-24T06:19:20;7.37;;;5.97;;
15112;SDS011;7657;50.140;7.076;2023-04-24T06:21:47;9.23;;;6.33;;
15112;SDS011;7657;50.140;7.076;2023-04-24T06:24:14;7.50;;;6.70;;
15112;SDS011;7657;50.140;7.076;2023-04-24T06:26:42;8.17;;;6.07;;
15112;SDS011;7657;50.140;7.076;2023-04-24T06:29:09;6.60;;;5.13;;
15112;SDS011;7657;50.140;7.076;2023-04-24T06:31:37;7.30;;;4.90;;
15112;SDS011;7657;50.140;7.076;2023-04-24T06:34:04;6.63;;;5.10;;
15112;SDS011;7657;50.140;7.076;2023-04-24T06:36:31;6.23;;;4.90;;
15112;SDS011;7657;50.140;7.076;2023-04-24T06:38:59;5.17;;;4.67;;
15112;SDS011;7657;50.140;7.076;2023-04-24T06:41:26;6.07;;;4.60;;
15112;SDS011;7657;50.140;7.076;2023-04-24T06:43:54;5.50;;;4.83;;
15112;SDS011;7657;50.140;7.076;2023-04-24T06:46:21;6.80;;;4.63;;
15112;SDS011;7657;50.140;7.076;2023-04-24T06:48:52;7.77;;;5.40;;
15112;SDS011;7657;50.140;7.076;2023-04-24T06:51:21;5.67;;;4.60;;
15112;SDS011;7657;50.140;7.076;2023-04-24T06:53:48;5.47;;;4.43;;
15112;SDS011;7657;50.140;7.076;2023-04-24T06:56:15;5.03;;;4.10;;
15112;SDS011;7657;50.140;7.076;2023-04-24T06:58:42;5.27;;;4.20;;
15112;SDS011;7657;50.140;7.076;2023-04-24T07:01:10;5.93;;;4.87;;
15112;SDS011;7657;50.140;7.076;2023-04-24T07:03:37;4.70;;;4.20;;
15112;SDS011;7657;50.140;7.076;2023-04-24T07:06:05;5.70;;;4.57;;
15112;SDS011;7657;50.140;7.076;2023-04-24T07:08:32;5.90;;;4.43;;
15112;SDS011;7657;50.140;7.076;2023-04-24T07:11:00;6.33;;;4.53;;
15112;SDS011;7657;50.140;7.076;2023-04-24T07:13:27;4.30;;;3.80;;
15112;SDS011;7657;50.140;7.076;2023-04-24T07:15:54;5.70;;;4.20;;
15112;SDS011;7657;50.140;7.076;2023-04-24T07:18:21;5.23;;;4.53;;
15112;SDS011;7657;50.140;7.076;2023-04-24T07:20:48;5.57;;;4.37;;
15112;SDS011;7657;50.140;7.076;2023-04-24T07:23:17;4.83;;;4.10;;
15112;SDS011;7657;50.140;7.076;2023-04-24T07:25:44;4.67;;;4.13;;
15112;SDS011;7657;50.140;7.076;2023-04-24T07:28:11;5.30;;;3.90;;
15112;SDS011;7657;50.140;7.076;2023-04-24T07:30:39;22.20;;;17.73;;
15112;SDS011;7657;50.140;7.076;2023-04-24T07:33:05;6.03;;;5.23;;
15112;SDS011;7657;50.140;7.076;2023-04-24T07:35:32;5.03;;;4.33;;
15112;SDS011;7657;50.140;7.076;2023-04-24T07:38:00;5.27;;;4.40;;
15112;SDS011;7657;50.140;7.076;2023-04-24T07:40:28;10.00;;;7.07;;
15112;SDS011;7657;50.140;7.076;2023-04-24T07:42:57;7.83;;;6.03;;
15112;SDS011;7657;50.140;7.076;2023-04-24T07:45:23;10.27;;;9.20;;
15112;SDS011;7657;50.140;7.076;2023-04-24T07:47:51;4.73;;;4.20;;
15112;SDS011;7657;50.140;7.076;2023-04-24T07:50:18;5.17;;;4.67;;
15112;SDS011;7657;50.140;7.076;2023-04-24T07:52:45;5.50;;;4.77;;
15112;SDS011;7657;50.140;7.076;2023-04-24T07:55:12;5.93;;;5.33;;
15112;SDS011;7657;50.140;7.076;2023-04-24T07:57:41;6.10;;;4.70;;
15112;SDS011;7657;50.140;7.076;2023-04-24T08:00:08;9.53;;;6.07;;
15112;SDS011;7657;50.140;7.076;2023-04-24T08:02:35;6.90;;;6.07;;
15112;SDS011;7657;50.140;7.076;2023-04-24T08:05:02;7.83;;;6.17;;
15112;SDS011;7657;50.140;7.076;2023-04-24T08:07:30;8.10;;;5.63;;
15112;SDS011;7657;50.140;7.076;2023-04-24T08:09:57;6.67;;;5.67;;
15112;SDS011;7657;50.140;7.076;2023-04-24T08:12:24;26.43;;;19.97;;
15112;SDS011;7657;50.140;7.076;2023-04-24T08:14:52;17.87;;;12.57;;
15112;SDS011;7657;50.140;7.076;2023-04-24T08:17:19;22.33;;;17.43;;
15112;SDS011;7657;50.140;7.076;2023-04-24T08:19:46;6.40;;;5.63;;
15112;SDS011;7657;50.140;7.076;2023-04-24T08:22:13;5.00;;;4.47;;
15112;SDS011;7657;50.140;7.076;2023-04-24T08:24:40;7.97;;;6.13;;
15112;SDS011;7657;50.140;7.076;2023-04-24T08:27:08;7.53;;;5.83;;
15112;SDS011;7657;50.140;7.076;2023-04-24T08:29:35;6.30;;;4.53;;
15112;SDS011;7657;50.140;7.076;2023-04-24T08:32:04;4.57;;;4.13;;
15112;SDS011;7657;50.140;7.076;2023-04-24T08:34:31;6.87;;;4.40;;
15112;SDS011;7657;50.140;7.076;2023-04-24T08:36:58;6.00;;;5.13;;
15112;SDS011;7657;50.140;7.076;2023-04-24T08:39:25;6.07;;;4.20;;
15112;SDS011;7657;50.140;7.076;2023-04-24T08:41:52;9.33;;;6.20;;
15112;SDS011;7657;50.140;7.076;2023-04-24T08:44:19;7.37;;;5.00;;
15112;SDS011;7657;50.140;7.076;2023-04-24T08:46:46;5.10;;;4.30;;
15112;SDS011;7657;50.140;7.076;2023-04-24T08:49:16;8.03;;;6.83;;
15112;SDS011;7657;50.140;7.076;2023-04-24T08:51:44;7.20;;;5.03;;
15112;SDS011;7657;50.140;7.076;2023-04-24T08:54:12;8.03;;;5.30;;
15112;SDS011;7657;50.140;7.076;2023-04-24T08:56:39;8.63;;;6.07;;
15112;SDS011;7657;50.140;7.076;2023-04-24T08:59:08;3.70;;;2.80;;
15112;SDS011;7657;50.140;7.076;2023-04-24T09:01:35;4.17;;;3.60;;
15112;SDS011;7657;50.140;7.076;2023-04-24T09:04:04;3.27;;;2.97;;
15112;SDS011;7657;50.140;7.076;2023-04-24T09:06:35;6.40;;;4.87;;
15112;SDS011;7657;50.140;7.076;2023-04-24T09:09:02;5.40;;;3.07;;
15112;SDS011;7657;50.140;7.076;2023-04-24T09:11:29;5.27;;;4.73;;
15112;SDS011;7657;50.140;7.076;2023-04-24T09:13:57;3.60;;;3.30;;
15112;SDS011;7657;50.140;7.076;2023-04-24T09:16:25;6.20;;;4.90;;
15112;SDS011;7657;50.140;7.076;2023-04-24T09:18:52;6.20;;;4.83;;
15112;SDS011;7657;50.140;7.076;2023-04-24T09:21:20;8.30;;;5.43;;
15112;SDS011;7657;50.140;7.076;2023-04-24T09:23:58;3.83;;;3.33;;
15112;SDS011;7657;50.140;7.076;2023-04-24T09:26:26;11.77;;;7.22;;
15112;SDS011;7657;50.140;7.076;2023-04-24T09:28:56;7.97;;;5.33;;
15112;SDS011;7657;50.140;7.076;2023-04-24T09:31:23;6.55;;;5.60;;
15112;SDS011;7657;50.140;7.076;2023-04-24T09:33:56;4.70;;;3.93;;
15112;SDS011;7657;50.140;7.076;2023-04-24T09:36:27;5.80;;;4.40;;
15112;SDS011;7657;50.140;7.076;2023-04-24T09:38:59;5.87;;;3.57;;
15112;SDS011;7657;50.140;7.076;2023-04-24T09:41:26;8.03;;;6.13;;
15112;SDS011;7657;50.140;7.076;2023-04-24T09:43:54;4.20;;;3.77;;
15112;SDS011;7657;50.140;7.076;2023-04-24T09:46:28;4.57;;;3.70;;
15112;SDS011;7657;50.140;7.076;2023-04-24T09:48:56;15.07;;;10.73;;
15112;SDS011;7657;50.140;7.076;2023-04-24T09:51:33;8.43;;;6.10;;
15112;SDS011;7657;50.140;7.076;2023-04-24T09:54:03;6.63;;;4.60;;
15112;SDS011;7657;50.140;7.076;2023-04-24T09:56:32;10.17;;;6.70;;
15112;SDS011;7657;50.140;7.076;2023-04-24T09:59:06;6.87;;;4.60;;
15112;SDS011;7657;50.140;7.076;2023-04-24T10:01:33;7.37;;;5.93;;
15112;SDS011;7657;50.140;7.076;2023-04-24T10:04:01;4.70;;;4.20;;
15112;SDS011;7657;50.140;7.076;2023-04-24T10:06:32;5.27;;;4.03;;
15112;SDS011;7657;50.140;7.076;2023-04-24T10:09:00;9.13;;;6.80;;
15112;SDS011;7657;50.140;7.076;2023-04-24T10:11:30;5.10;;;4.47;;
15112;SDS011;7657;50.140;7.076;2023-04-24T10:13:57;9.33;;;5.50;;
15112;SDS011;7657;50.140;7.076;2023-04-24T10:16:24;6.50;;;4.73;;
15112;SDS011;7657;50.140;7.076;2023-04-24T10:18:53;7.20;;;5.00;;
15112;SDS011;7657;50.140;7.076;2023-04-24T10:21:21;8.97;;;5.70;;
15112;SDS011;7657;50.140;7.076;2023-04-24T10:23:48;7.97;;;5.27;;
15112;SDS011;7657;50.140;7.076;2023-04-24T10:26:16;7.37;;;5.13;;
15112;SDS011;7657;50.140;7.076;2023-04-24T10:28:46;5.80;;;4.73;;
15112;SDS011;7657;50.140;7.076;2023-04-24T10:31:14;5.93;;;5.00;;
15112;SDS011;7657;50.140;7.076;2023-04-24T10:33:41;6.73;;;4.77;;
15112;SDS011;7657;50.140;7.076;2023-04-24T10:36:09;6.90;;;5.07;;
15112;SDS011;7657;50.140;7.076;2023-04-24T10:38:38;6.40;;;4.60;;
15112;SDS011;7657;50.140;7.076;2023-04-24T10:41:08;7.07;;;4.63;;
15112;SDS011;7657;50.140;7.076;2023-04-24T10:43:41;6.20;;;4.63;;
15112;SDS011;7657;50.140;7.076;2023-04-24T10:46:10;6.83;;;4.20;;
15112;SDS011;7657;50.140;7.076;2023-04-24T10:48:42;5.68;;;4.13;;
15112;SDS011;7657;50.140;7.076;2023-04-24T10:51:11;6.43;;;4.53;;
15112;SDS011;7657;50.140;7.076;2023-04-24T10:53:39;5.22;;;3.65;;
15112;SDS011;7657;50.140;7.076;2023-04-24T10:56:06;7.40;;;4.68;;
15112;SDS011;7657;50.140;7.076;2023-04-24T10:58:38;12.70;;;6.63;;
15112;SDS011;7657;50.140;7.076;2023-04-24T11:01:06;7.28;;;4.65;;
15112;SDS011;7657;50.140;7.076;2023-04-24T11:03:34;5.45;;;4.32;;
15112;SDS011;7657;50.140;7.076;2023-04-24T11:06:03;7.50;;;4.88;;
15112;SDS011;7657;50.140;7.076;2023-04-24T11:08:42;5.15;;;4.30;;
15112;SDS011;7657;50.140;7.076;2023-04-24T11:11:11;6.80;;;4.50;;
15112;SDS011;7657;50.140;7.076;2023-04-24T11:16:38;6.18;;;4.68;;
15112;SDS011;7657;50.140;7.076;2023-04-24T11:19:18;6.82;;;4.45;;
15112;SDS011;7657;50.140;7.076;2023-04-24T11:21:49;8.63;;;4.53;;
15112;SDS011;7657;50.140;7.076;2023-04-24T11:24:29;4.68;;;4.00;;
15112;SDS011;7657;50.140;7.076;2023-04-24T11:26:59;6.28;;;4.35;;
15112;SDS011;7657;50.140;7.076;2023-04-24T11:29:38;5.05;;;4.10;;
15112;SDS011;7657;50.140;7.076;2023-04-24T11:32:22;6.28;;;4.78;;
15112;SDS011;7657;50.140;7.076;2023-04-24T11:34:52;8.30;;;4.97;;
15112;SDS011;7657;50.140;7.076;2023-04-24T11:37:21;6.65;;;4.38;;
15112;SDS011;7657;50.140;7.076;2023-04-24T11:39:52;6.25;;;4.45;;
15112;SDS011;7657;50.140;7.076;2023-04-24T11:42:20;13.93;;;6.57;;
15112;SDS011;7657;50.140;7.076;2023-04-24T11:44:49;6.15;;;3.88;;
15112;SDS011;7657;50.140;7.076;2023-04-24T11:47:16;20.65;;;16.58;;
15112;SDS011;7657;50.140;7.076;2023-04-24T11:49:43;9.38;;;5.30;;
15112;SDS011;7657;50.140;7.076;2023-04-24T11:52:11;9.23;;;6.20;;
15112;SDS011;7657;50.140;7.076;2023-04-24T11:54:46;8.23;;;5.28;;
15112;SDS011;7657;50.140;7.076;2023-04-24T11:57:14;14.70;;;12.70;;
15112;SDS011;7657;50.140;7.076;2023-04-24T11:59:42;7.22;;;4.65;;
15112;SDS011;7657;50.140;7.076;2023-04-24T12:02:09;7.90;;;4.65;;
15112;SDS011;7657;50.140;7.076;2023-04-24T12:04:45;5.15;;;3.67;;
15112;SDS011;7657;50.140;7.076;2023-04-24T12:07:13;4.78;;;3.75;;
15112;SDS011;7657;50.140;7.076;2023-04-24T12:09:41;5.95;;;3.40;;
15112;SDS011;7657;50.140;7.076;2023-04-24T12:12:08;5.38;;;3.65;;
15112;SDS011;7657;50.140;7.076;2023-04-24T12:14:41;5.20;;;3.50;;
15112;SDS011;7657;50.140;7.076;2023-04-24T12:17:10;6.47;;;3.90;;
15112;SDS011;7657;50.140;7.076;2023-04-24T12:19:36;7.05;;;3.55;;
15112;SDS011;7657;50.140;7.076;2023-04-24T12:22:04;8.82;;;3.95;;
15112;SDS011;7657;50.140;7.076;2023-04-24T12:24:33;5.22;;;4.03;;
15112;SDS011;7657;50.140;7.076;2023-04-24T12:27:00;5.38;;;4.05;;
15112;SDS011;7657;50.140;7.076;2023-04-24T12:29:27;5.72;;;3.63;;
15112;SDS011;7657;50.140;7.076;2023-04-24T12:31:54;6.53;;;4.43;;
15112;SDS011;7657;50.140;7.076;2023-04-24T12:34:22;5.28;;;3.42;;
15112;SDS011;7657;50.140;7.076;2023-04-24T12:36:50;6.57;;;3.78;;
15112;SDS011;7657;50.140;7.076;2023-04-24T12:39:18;5.47;;;3.72;;
15112;SDS011;7657;50.140;7.076;2023-04-24T12:41:55;5.82;;;3.28;;
15112;SDS011;7657;50.140;7.076;2023-04-24T12:44:30;6.07;;;3.85;;
15112;SDS011;7657;50.140;7.076;2023-04-24T12:46:59;6.40;;;3.90;;
15112;SDS011;7657;50.140;7.076;2023-04-24T12:49:26;10.68;;;7.85;;
15112;SDS011;7657;50.140;7.076;2023-04-24T12:51:53;5.20;;;3.67;;
15112;SDS011;7657;50.140;7.076;2023-04-24T12:54:20;5.20;;;3.92;;
15112;SDS011;7657;50.140;7.076;2023-04-24T12:56:47;10.68;;;3.88;;
15112;SDS011;7657;50.140;7.076;2023-04-24T12:59:16;7.07;;;5.10;;
15112;SDS011;7657;50.140;7.076;2023-04-24T13:01:43;7.40;;;4.10;;
15112;SDS011;7657;50.140;7.076;2023-04-24T13:04:10;8.65;;;3.92;;
15112;SDS011;7657;50.140;7.076;2023-04-24T13:06:36;9.57;;;6.00;;
15112;SDS011;7657;50.140;7.076;2023-04-24T13:09:03;17.73;;;9.27;;
15112;SDS011;7657;50.140;7.076;2023-04-24T13:11:30;8.85;;;4.63;;
15112;SDS011;7657;50.140;7.076;2023-04-24T13:13:57;6.65;;;3.72;;
15112;SDS011;7657;50.140;7.076;2023-04-24T13:16:25;18.35;;;11.00;;
15112;SDS011;7657;50.140;7.076;2023-04-24T13:18:52;16.52;;;10.75;;
15112;SDS011;7657;50.140;7.076;2023-04-24T13:21:19;10.98;;;7.10;;
15112;SDS011;7657;50.140;7.076;2023-04-24T13:23:46;6.72;;;5.05;;
15112;SDS011;7657;50.140;7.076;2023-04-24T13:26:13;7.45;;;5.45;;
15112;SDS011;7657;50.140;7.076;2023-04-24T13:28:40;7.78;;;5.38;;
15112;SDS011;7657;50.140;7.076;2023-04-24T13:31:07;6.43;;;3.97;;
15112;SDS011;7657;50.140;7.076;2023-04-24T13:33:35;7.90;;;4.18;;
15112;SDS011;7657;50.140;7.076;2023-04-24T13:36:02;6.25;;;4.10;;
15112;SDS011;7657;50.140;7.076;2023-04-24T13:38:29;7.43;;;4.55;;
15112;SDS011;7657;50.140;7.076;2023-04-24T13:40:56;7.82;;;4.55;;
15112;SDS011;7657;50.140;7.076;2023-04-24T13:43:23;5.10;;;3.95;;
15112;SDS011;7657;50.140;7.076;2023-04-24T13:45:50;7.13;;;4.10;;
15112;SDS011;7657;50.140;7.076;2023-04-24T13:48:17;9.13;;;5.38;;
15112;SDS011;7657;50.140;7.076;2023-04-24T13:50:45;6.93;;;4.40;;
15112;SDS011;7657;50.140;7.076;2023-04-24T13:53:13;5.53;;;3.70;;
15112;SDS011;7657;50.140;7.076;2023-04-24T13:55:40;6.15;;;4.13;;
15112;SDS011;7657;50.140;7.076;2023-04-24T13:58:07;5.80;;;4.10;;
15112;SDS011;7657;50.140;7.076;2023-04-24T14:00:34;5.18;;;4.00;;
15112;SDS011;7657;50.140;7.076;2023-04-24T14:03:01;7.68;;;4.60;;
15112;SDS011;7657;50.140;7.076;2023-04-24T14:05:27;5.05;;;4.10;;
15112;SDS011;7657;50.140;7.076;2023-04-24T14:07:56;5.95;;;4.32;;
15112;SDS011;7657;50.140;7.076;2023-04-24T14:10:22;7.75;;;5.85;;
15112;SDS011;7657;50.140;7.076;2023-04-24T14:12:50;7.50;;;4.82;;
15112;SDS011;7657;50.140;7.076;2023-04-24T14:15:18;9.73;;;5.18;;
15112;SDS011;7657;50.140;7.076;2023-04-24T14:17:45;9.38;;;4.78;;
15112;SDS011;7657;50.140;7.076;2023-04-24T14:20:12;5.30;;;4.35;;
15112;SDS011;7657;50.140;7.076;2023-04-24T14:22:39;5.85;;;4.22;;
15112;SDS011;7657;50.140;7.076;2023-04-24T14:25:08;5.65;;;4.10;;
15112;SDS011;7657;50.140;7.076;2023-04-24T14:27:35;7.05;;;5.68;;
15112;SDS011;7657;50.140;7.076;2023-04-24T14:30:02;7.57;;;4.50;;
15112;SDS011;7657;50.140;7.076;2023-04-24T14:32:29;8.52;;;4.38;;
15112;SDS011;7657;50.140;7.076;2023-04-24T14:34:56;6.47;;;4.05;;
15112;SDS011;7657;50.140;7.076;2023-04-24T14:37:23;6.75;;;4.53;;
15112;SDS011;7657;50.140;7.076;2023-04-24T14:39:50;6.88;;;3.70;;
15112;SDS011;7657;50.140;7.076;2023-04-24T14:42:18;7.53;;;3.75;;
15112;SDS011;7657;50.140;7.076;2023-04-24T14:44:45;5.13;;;3.35;;
15112;SDS011;7657;50.140;7.076;2023-04-24T14:47:12;5.43;;;3.58;;
15112;SDS011;7657;50.140;7.076;2023-04-24T14:49:39;4.25;;;3.25;;
15112;SDS011;7657;50.140;7.076;2023-04-24T14:52:06;6.47;;;4.50;;
15112;SDS011;7657;50.140;7.076;2023-04-24T14:54:33;4.95;;;3.40;;
15112;SDS011;7657;50.140;7.076;2023-04-24T14:57:00;6.88;;;4.85;;
15112;SDS011;7657;50.140;7.076;2023-04-24T14:59:28;5.80;;;3.60;;
15112;SDS011;7657;50.140;7.076;2023-04-24T15:01:56;4.38;;;3.40;;
15112;SDS011;7657;50.140;7.076;2023-04-24T15:04:23;3.67;;;2.90;;
15112;SDS011;7657;50.140;7.076;2023-04-24T15:06:51;3.92;;;3.15;;